Terminal Aerodrome Forecast
Issued by NWS Pueblo, CO

Home | Current Version | Previous Version | Text Only | Print | Product List | Glossary On
Versions: 1 2 3 4 5 6 7 8 9 10 11 12 13 14 15 16 17 18 19 20 21 22 23 24 25 26 27 28 29 30 31 32
000
FTUS45 KPUB 290520
TAFCOS
TAF
KCOS 290520Z 2906/3006 36008KT P6SM FEW100
     FM290900 36014G24KT P6SM FEW100 SCT200
     FM291500 36014KT P6SM SCT120 SCT200
     FM291800 03012KT P6SM FEW200
     FM292000 16012KT P6SM SCT050
     FM300300 14006KT P6SM FEW050=

USA.gov is the U.S. government's official web portal to all federal, state and local government web resources and services.